createdAt,value
2023-01-22T00:01:22.821Z,82.14
2023-01-22T00:03:56.439Z,82.17
2023-01-22T00:06:29.547Z,82.39
2023-01-22T00:08:57.963Z,82.08
2023-01-22T00:11:29.189Z,82.96
2023-01-22T00:14:02.581Z,82.56
2023-01-22T00:16:38.699Z,82.68
2023-01-22T00:19:07.377Z,82.65
2023-01-22T00:21:37.038Z,82.61
2023-01-22T00:24:07.283Z,82.89
2023-01-22T00:26:42.617Z,83.18
2023-01-22T00:29:24.788Z,82.94
2023-01-22T00:31:55.962Z,82.73
2023-01-22T00:34:24.455Z,82.58
2023-01-22T00:36:56.479Z,83.45
2023-01-22T00:39:27.666Z,83.10
2023-01-22T00:42:00.106Z,82.62
2023-01-22T00:44:34.815Z,82.57
2023-01-22T00:47:04.707Z,82.32
2023-01-22T00:49:34.027Z,82.08
2023-01-22T00:52:05.883Z,82.78
2023-01-22T00:54:41.220Z,82.18
2023-01-22T00:57:18.387Z,82.72
2023-01-22T00:59:47.965Z,81.57
2023-01-22T01:02:34.507Z,82.22
2023-01-22T01:05:03.509Z,82.35
2023-01-22T01:07:33.695Z,81.34
2023-01-22T01:10:08.487Z,82.11
2023-01-22T01:12:38.707Z,81.47
2023-01-22T01:15:10.204Z,82.31
2023-01-22T01:17:38.416Z,81.30
2023-01-22T01:20:10.582Z,81.09
2023-01-22T01:22:42.773Z,82.43
2023-01-22T01:25:17.522Z,81.86
2023-01-22T01:28:00.585Z,82.45
2023-01-22T01:30:28.344Z,81.52
2023-01-22T01:32:59.410Z,82.04
2023-01-22T01:35:29.139Z,82.04
2023-01-22T01:38:00.575Z,81.68
2023-01-22T01:40:30.363Z,81.16
2023-01-22T01:43:04.112Z,81.34
2023-01-22T01:45:35.928Z,82.07
2023-01-22T01:48:13.181Z,81.41
2023-01-22T01:50:44.934Z,82.24
2023-01-22T01:53:13.034Z,81.97
2023-01-22T01:55:42.394Z,81.76
2023-01-22T01:58:21.686Z,81.39
2023-01-22T02:00:53.408Z,80.75
2023-01-22T02:03:24.180Z,80.67
2023-01-22T02:05:55.937Z,81.04
2023-01-22T02:08:24.979Z,81.64
2023-01-22T02:10:59.287Z,80.86
2023-01-22T02:13:38.213Z,81.28
2023-01-22T02:16:13.116Z,80.49
2023-01-22T02:18:41.525Z,80.19
2023-01-22T02:21:33.312Z,80.79
2023-01-22T02:24:04.663Z,80.32
2023-01-22T02:26:35.736Z,80.49
2023-01-22T02:29:10.117Z,80.26
2023-01-22T02:31:49.469Z,80.76
2023-01-22T02:34:24.426Z,81.41
2023-01-22T02:36:56.127Z,81.30
2023-01-22T02:39:27.841Z,80.95
2023-01-22T02:42:00.165Z,80.84
2023-01-22T02:44:35.616Z,80.93
2023-01-22T02:47:05.244Z,81.37
2023-01-22T02:49:35.713Z,80.76
2023-01-22T02:52:05.903Z,81.82
2023-01-22T02:54:37.486Z,81.57
2023-01-22T02:57:09.043Z,81.36
2023-01-22T02:59:39.415Z,81.69
2023-01-22T03:02:11.905Z,82.50
2023-01-22T03:04:40.014Z,82.30
2023-01-22T03:07:11.635Z,82.51
2023-01-22T03:09:42.124Z,82.84
2023-01-22T03:12:10.575Z,82.36
2023-01-22T03:14:56.875Z,82.63
2023-01-22T03:17:42.177Z,82.35
2023-01-22T03:20:33.778Z,82.87
2023-01-22T03:23:05.938Z,82.83
2023-01-22T03:25:36.313Z,82.21
2023-01-22T03:28:19.734Z,82.97
2023-01-22T03:30:48.866Z,82.20
2023-01-22T03:33:26.313Z,82.55
2023-01-22T03:35:54.940Z,81.79
2023-01-22T03:38:24.747Z,82.24
2023-01-22T03:41:00.281Z,82.54
2023-01-22T03:43:34.597Z,82.16
2023-01-22T03:46:10.744Z,82.74
2023-01-22T03:48:42.488Z,82.03
2023-01-22T03:51:16.179Z,81.62
2023-01-22T03:53:48.495Z,81.59
2023-01-22T03:56:21.803Z,81.49
2023-01-22T03:58:52.963Z,81.76
2023-01-22T04:01:26.716Z,82.26
2023-01-22T04:03:56.385Z,81.46
2023-01-22T04:06:28.174Z,81.90
2023-01-22T04:09:00.118Z,81.41
2023-01-22T04:11:32.187Z,81.41
2023-01-22T04:14:03.281Z,81.96
2023-01-22T04:16:32.105Z,81.23
2023-01-22T04:19:04.983Z,81.45
2023-01-22T04:21:41.800Z,81.26
2023-01-22T04:24:12.713Z,81.26
2023-01-22T04:26:42.179Z,81.53
2023-01-22T04:29:10.511Z,80.96
2023-01-22T04:31:43.310Z,80.64
2023-01-22T04:34:16.670Z,81.13
2023-01-22T04:36:46.358Z,80.81
2023-01-22T04:39:16.009Z,80.99
2023-01-22T04:41:50.195Z,80.90
2023-01-22T04:44:19.331Z,80.89
2023-01-22T04:46:49.465Z,80.72
2023-01-22T04:49:20.770Z,81.71
2023-01-22T04:51:50.782Z,80.31
2023-01-22T04:54:25.272Z,80.87
2023-01-22T04:56:57.370Z,80.34
2023-01-22T04:59:27.405Z,80.61
2023-01-22T05:01:58.813Z,80.56
2023-01-22T05:04:33.562Z,80.94
2023-01-22T05:07:03.297Z,80.61
2023-01-22T05:09:35.367Z,81.59
2023-01-22T05:12:04.564Z,80.51
2023-01-22T05:14:37.171Z,80.50
2023-01-22T05:17:05.839Z,80.26
2023-01-22T05:19:36.371Z,80.42
2023-01-22T05:22:06.927Z,80.84
2023-01-22T05:24:39.382Z,80.74
2023-01-22T05:27:07.088Z,79.73
2023-01-22T05:29:36.570Z,79.81
2023-01-22T05:32:16.811Z,79.92
2023-01-22T05:34:44.578Z,79.86
2023-01-22T05:37:14.009Z,80.77
2023-01-22T05:39:43.996Z,80.47
2023-01-22T05:42:15.890Z,79.82
2023-01-22T05:44:44.769Z,80.24
2023-01-22T05:47:18.110Z,80.47
2023-01-22T05:50:19.636Z,79.79
2023-01-22T05:52:47.827Z,80.78
2023-01-22T05:55:19.164Z,81.13
2023-01-22T05:57:51.841Z,80.21
2023-01-22T06:00:20.715Z,80.08
2023-01-22T06:02:55.742Z,80.31
2023-01-22T06:05:26.731Z,80.15
2023-01-22T06:08:00.314Z,80.52
2023-01-22T06:10:31.333Z,79.98
2023-01-22T06:13:01.834Z,80.85
2023-01-22T06:15:29.895Z,80.52
2023-01-22T06:18:03.376Z,80.18
2023-01-22T06:20:34.503Z,80.98
2023-01-22T06:23:07.959Z,79.86
2023-01-22T06:25:44.515Z,79.91
2023-01-22T06:28:21.662Z,80.97
2023-01-22T06:30:49.967Z,80.67
2023-01-22T06:33:19.568Z,80.47
2023-01-22T06:35:50.189Z,80.04
2023-01-22T06:38:22.135Z,80.17
2023-01-22T06:40:54.618Z,80.09
2023-01-22T06:43:24.351Z,80.80
2023-01-22T06:45:55.814Z,80.96
2023-01-22T06:48:23.964Z,81.13
2023-01-22T06:50:52.527Z,81.16
2023-01-22T06:53:20.886Z,80.44
2023-01-22T06:55:49.867Z,80.23
2023-01-22T06:58:21.799Z,80.08
2023-01-22T07:00:49.562Z,80.59
2023-01-22T07:03:20.605Z,80.57
2023-01-22T07:05:58.259Z,81.26
2023-01-22T07:08:30.433Z,80.08
2023-01-22T07:11:01.660Z,79.80
2023-01-22T07:13:31.991Z,80.33
2023-01-22T07:16:05.313Z,79.81
2023-01-22T07:18:35.698Z,80.06
2023-01-22T07:21:06.183Z,80.65
2023-01-22T07:23:36.491Z,80.77
2023-01-22T07:26:04.461Z,80.58
2023-01-22T07:28:34.091Z,80.54
2023-01-22T07:31:05.234Z,81.13
2023-01-22T07:33:36.226Z,81.41
2023-01-22T07:36:07.003Z,80.42
2023-01-22T07:38:39.305Z,80.36
2023-01-22T07:41:20.525Z,80.86
2023-01-22T07:44:00.124Z,79.92
2023-01-22T07:46:31.502Z,79.85
2023-01-22T07:49:00.759Z,80.17
2023-01-22T07:51:29.163Z,80.10
2023-01-22T07:53:59.594Z,79.49
2023-01-22T07:56:29.126Z,79.96
2023-01-22T07:58:58.960Z,79.92
2023-01-22T08:01:32.541Z,80.13
2023-01-22T08:04:00.344Z,80.09
2023-01-22T08:06:33.508Z,80.50
2023-01-22T08:09:02.365Z,80.20
2023-01-22T08:11:30.798Z,80.70
2023-01-22T08:14:02.827Z,80.10
2023-01-22T08:16:32.750Z,79.72
2023-01-22T08:19:03.813Z,80.25
2023-01-22T08:21:32.112Z,79.15
2023-01-22T08:23:59.819Z,79.09
2023-01-22T08:26:30.420Z,79.39
2023-01-22T08:28:59.297Z,78.89
2023-01-22T08:31:32.559Z,79.77
2023-01-22T08:34:03.433Z,78.93
2023-01-22T08:36:36.141Z,79.18
2023-01-22T08:39:04.362Z,78.97
2023-01-22T08:41:33.198Z,79.30
2023-01-22T08:44:07.139Z,79.10
2023-01-22T08:46:41.101Z,78.37
2023-01-22T08:49:11.687Z,78.82
2023-01-22T08:51:44.310Z,78.92
2023-01-22T08:54:13.296Z,78.79
2023-01-22T08:56:41.444Z,79.03
2023-01-22T08:59:16.076Z,78.41
2023-01-22T09:01:54.196Z,78.49
2023-01-22T09:04:31.388Z,78.78
2023-01-22T09:07:20.211Z,78.66
2023-01-22T09:09:49.057Z,77.96
2023-01-22T09:12:18.036Z,78.14
2023-01-22T09:14:49.305Z,78.07
2023-01-22T09:17:20.135Z,78.75
2023-01-22T09:20:00.281Z,78.50
2023-01-22T09:22:32.093Z,78.27
2023-01-22T09:25:10.739Z,78.54
2023-01-22T09:27:39.392Z,77.52
2023-01-22T09:30:15.619Z,76.99
2023-01-22T09:32:51.234Z,77.34
2023-01-22T09:35:28.260Z,77.74
2023-01-22T09:37:56.920Z,77.58
2023-01-22T09:40:32.095Z,77.40
2023-01-22T09:43:06.291Z,77.92
2023-01-22T09:45:38.379Z,77.96
2023-01-22T09:48:15.250Z,77.32
2023-01-22T09:50:47.153Z,77.85
2023-01-22T09:53:24.119Z,78.26
2023-01-22T09:56:05.297Z,77.21
2023-01-22T09:58:35.833Z,77.63
2023-01-22T10:01:08.868Z,77.91
2023-01-22T10:03:42.131Z,77.01
2023-01-22T10:06:18.530Z,77.22
2023-01-22T10:08:58.051Z,77.31
2023-01-22T10:11:31.219Z,76.88
2023-01-22T10:14:03.252Z,77.32
2023-01-22T10:16:31.132Z,76.73
2023-01-22T10:19:04.366Z,77.51
2023-01-22T10:21:34.910Z,77.21
2023-01-22T10:24:02.786Z,75.76
2023-01-22T10:26:37.912Z,75.71
2023-01-22T10:29:11.789Z,75.87
2023-01-22T10:31:48.898Z,75.31
2023-01-22T10:34:28.847Z,75.62
2023-01-22T10:37:04.919Z,75.63
2023-01-22T10:39:44.914Z,75.20
2023-01-22T10:42:18.239Z,74.82
2023-01-22T10:44:51.376Z,75.05
2023-01-22T10:47:28.499Z,74.70
2023-01-22T10:50:10.921Z,75.53
2023-01-22T10:52:42.898Z,74.65
2023-01-22T10:55:25.898Z,74.50
2023-01-22T10:58:11.672Z,74.27
2023-01-22T11:00:52.311Z,72.98
2023-01-22T11:03:24.768Z,73.00
2023-01-22T11:06:00.032Z,73.12
2023-01-22T11:08:37.706Z,74.06
2023-01-22T11:11:12.392Z,74.35
2023-01-22T11:13:47.527Z,74.16
2023-01-22T11:16:18.389Z,73.98
2023-01-22T11:18:54.850Z,73.83
2023-01-22T11:21:28.462Z,73.71
2023-01-22T11:24:03.909Z,74.77
2023-01-22T11:26:53.114Z,74.55
2023-01-22T11:29:54.172Z,73.01
2023-01-22T11:32:53.480Z,75.32
2023-01-22T11:35:33.349Z,74.51
2023-01-22T11:38:22.600Z,75.48
2023-01-22T11:41:16.962Z,74.91
2023-01-22T11:44:05.181Z,75.00
2023-01-22T11:46:48.181Z,74.85
2023-01-22T11:49:28.497Z,74.43
2023-01-22T11:52:12.792Z,75.75
2023-01-22T11:55:05.489Z,75.40
2023-01-22T11:57:46.044Z,74.79
2023-01-22T12:00:41.759Z,75.22
2023-01-22T12:03:50.115Z,75.11
2023-01-22T12:06:30.977Z,74.90
2023-01-22T12:09:12.557Z,74.62
2023-01-22T12:12:00.660Z,75.76
2023-01-22T12:14:49.234Z,75.71
2023-01-22T12:17:39.900Z,76.22
2023-01-22T12:20:38.701Z,74.70
2023-01-22T12:23:11.513Z,75.06
2023-01-22T12:25:49.682Z,75.62
2023-01-22T12:28:30.691Z,74.16
2023-01-22T12:31:03.735Z,74.96
2023-01-22T12:33:41.795Z,75.20
2023-01-22T12:36:17.222Z,76.32
2023-01-22T12:38:56.974Z,75.80
2023-01-22T12:42:02.791Z,75.91
2023-01-22T12:44:43.848Z,74.68
2023-01-22T12:47:28.442Z,75.27
2023-01-22T12:50:00.214Z,75.61
2023-01-22T12:52:33.194Z,75.89
2023-01-22T12:55:05.435Z,75.86
2023-01-22T12:57:43.711Z,74.55
2023-01-22T13:00:34.665Z,74.58
2023-01-22T13:03:30.937Z,74.92
2023-01-22T13:06:09.117Z,74.53
2023-01-22T13:08:47.310Z,74.61
2023-01-22T13:11:28.014Z,75.20
2023-01-22T13:14:09.970Z,74.69
2023-01-22T13:16:43.639Z,74.43
2023-01-22T13:19:31.497Z,74.66
2023-01-22T13:22:09.462Z,75.33
2023-01-22T13:24:37.387Z,74.28
2023-01-22T13:27:07.795Z,74.82
2023-01-22T13:29:42.379Z,74.70
2023-01-22T13:32:20.593Z,75.01
2023-01-22T13:34:49.990Z,75.80
2023-01-22T13:37:29.244Z,74.40
2023-01-22T13:39:59.269Z,75.21
2023-01-22T13:42:30.524Z,75.03
2023-01-22T13:44:58.708Z,75.78
2023-01-22T13:47:38.064Z,75.53
2023-01-22T13:50:20.461Z,74.38
2023-01-22T13:52:51.350Z,75.60
2023-01-22T13:55:24.295Z,75.21
2023-01-22T13:57:54.887Z,74.55
2023-01-22T14:00:29.595Z,75.59
2023-01-22T14:03:03.627Z,75.97
2023-01-22T14:05:41.903Z,75.72
2023-01-22T14:08:12.390Z,76.38
2023-01-22T14:10:48.667Z,75.52
2023-01-22T14:13:19.459Z,76.34
2023-01-22T14:16:00.217Z,76.24
2023-01-22T14:18:33.944Z,76.47
2023-01-22T14:21:03.144Z,76.59
2023-01-22T14:23:33.657Z,76.86
2023-01-22T14:26:04.281Z,76.60
2023-01-22T14:28:46.068Z,76.41
2023-01-22T14:31:16.863Z,76.75
2023-01-22T14:33:47.020Z,76.39
2023-01-22T14:36:23.274Z,77.19
2023-01-22T14:38:53.554Z,77.24
2023-01-22T14:41:26.626Z,77.00
2023-01-22T14:43:57.047Z,77.45
2023-01-22T14:46:28.243Z,76.89
2023-01-22T14:48:59.854Z,77.16
2023-01-22T14:51:35.316Z,77.36
2023-01-22T14:54:04.449Z,76.94
2023-01-22T14:56:37.910Z,76.57
2023-01-22T14:59:11.154Z,77.35
2023-01-22T15:01:45.275Z,77.72
2023-01-22T15:04:15.709Z,77.69
2023-01-22T15:06:51.825Z,77.46
2023-01-22T15:09:20.156Z,77.21
2023-01-22T15:12:01.841Z,77.86
2023-01-22T15:14:31.762Z,78.00
2023-01-22T15:17:04.604Z,78.09
2023-01-22T15:19:48.104Z,78.11
2023-01-22T15:22:17.992Z,77.74
2023-01-22T15:24:47.343Z,78.06
2023-01-22T15:27:19.006Z,77.36
2023-01-22T15:29:53.419Z,77.82
2023-01-22T15:32:26.914Z,77.91
2023-01-22T15:34:58.359Z,77.50
2023-01-22T15:37:33.296Z,77.77
2023-01-22T15:40:04.495Z,77.52
2023-01-22T15:42:38.218Z,77.50
2023-01-22T15:45:10.231Z,77.69
2023-01-22T15:47:40.495Z,78.13
2023-01-22T15:50:20.435Z,78.49
2023-01-22T15:52:55.718Z,78.27
2023-01-22T15:55:28.154Z,78.16
2023-01-22T15:58:04.837Z,78.32
2023-01-22T16:00:35.330Z,78.33
2023-01-22T16:03:04.506Z,78.98
2023-01-22T16:05:34.005Z,78.87
2023-01-22T16:08:08.650Z,78.63
2023-01-22T16:10:38.187Z,78.46
2023-01-22T16:13:13.021Z,78.25
2023-01-22T16:15:47.935Z,78.01
2023-01-22T16:18:22.314Z,78.59
2023-01-22T16:20:50.514Z,78.60
2023-01-22T16:23:22.749Z,78.68
2023-01-22T16:26:05.948Z,78.59
2023-01-22T16:28:35.364Z,79.23
2023-01-22T16:31:06.636Z,79.80
2023-01-22T16:33:45.531Z,80.50
2023-01-22T16:36:17.661Z,79.50
2023-01-22T16:38:54.104Z,79.61
2023-01-22T16:41:29.742Z,79.44
2023-01-22T16:44:05.856Z,79.82
2023-01-22T16:46:40.603Z,79.80
2023-01-22T16:49:17.626Z,79.27
2023-01-22T16:51:47.916Z,79.42
2023-01-22T16:54:24.305Z,79.53
2023-01-22T16:56:54.040Z,79.41
2023-01-22T16:59:22.697Z,79.99
2023-01-22T17:01:51.613Z,79.94
2023-01-22T17:04:22.584Z,80.54
2023-01-22T17:06:54.047Z,79.90
2023-01-22T17:09:29.612Z,80.28
2023-01-22T17:12:03.335Z,80.29
2023-01-22T17:14:36.065Z,79.76
2023-01-22T17:17:06.362Z,80.05
2023-01-22T17:19:37.881Z,80.37
2023-01-22T17:22:13.532Z,80.66
2023-01-22T17:24:46.200Z,80.76
2023-01-22T17:27:30.464Z,80.34
2023-01-22T17:30:00.230Z,80.22
2023-01-22T17:32:29.860Z,80.17
2023-01-22T17:35:00.152Z,80.79
2023-01-22T17:37:28.926Z,80.63
2023-01-22T17:40:14.796Z,80.96
2023-01-22T17:42:45.210Z,81.51
2023-01-22T17:45:28.127Z,81.02
2023-01-22T17:47:59.985Z,80.97
2023-01-22T17:50:36.235Z,81.75
2023-01-22T17:53:05.245Z,81.15
2023-01-22T17:55:34.519Z,82.10
2023-01-22T17:58:09.187Z,81.89
2023-01-22T18:00:40.045Z,82.24
2023-01-22T18:03:09.434Z,82.54
2023-01-22T18:05:37.991Z,82.02
2023-01-22T18:08:06.609Z,82.11
2023-01-22T18:10:39.531Z,82.78
2023-01-22T18:13:08.711Z,82.87
2023-01-22T18:15:38.889Z,82.58
2023-01-22T18:18:08.260Z,82.94
2023-01-22T18:20:39.700Z,83.01
2023-01-22T18:23:10.470Z,82.86
2023-01-22T18:25:49.568Z,82.31
2023-01-22T18:28:19.347Z,82.66
2023-01-22T18:30:53.929Z,83.53
2023-01-22T18:33:23.124Z,83.69
2023-01-22T18:35:57.038Z,83.31
2023-01-22T18:38:28.587Z,84.10
2023-01-22T18:41:05.416Z,84.35
2023-01-22T18:43:36.243Z,84.46
2023-01-22T18:46:19.622Z,84.99
2023-01-22T18:48:48.620Z,85.33
2023-01-22T18:51:24.727Z,85.41
2023-01-22T18:53:56.186Z,84.13
2023-01-22T18:56:39.319Z,84.77
2023-01-22T18:59:09.494Z,85.40
2023-01-22T19:01:53.044Z,84.65
2023-01-22T19:04:22.305Z,85.33
2023-01-22T19:06:56.995Z,85.39
2023-01-22T19:09:28.873Z,85.84
2023-01-22T19:12:13.483Z,85.55
2023-01-22T19:14:48.410Z,85.11
2023-01-22T19:17:37.290Z,84.69
2023-01-22T19:20:16.569Z,85.22
2023-01-22T19:22:54.710Z,85.00
2023-01-22T19:25:57.200Z,85.20
2023-01-22T19:28:30.087Z,84.40
2023-01-22T19:31:13.080Z,84.99
2023-01-22T19:33:46.396Z,84.70
2023-01-22T19:36:33.191Z,84.92
2023-01-22T19:39:05.457Z,84.86
2023-01-22T19:41:36.060Z,84.39
2023-01-22T19:44:16.966Z,84.37
2023-01-22T19:46:46.931Z,84.95
2023-01-22T19:49:18.418Z,83.75
2023-01-22T19:51:49.357Z,83.99
2023-01-22T19:54:20.003Z,84.07
2023-01-22T19:56:48.695Z,84.29
2023-01-22T19:59:26.340Z,84.53
2023-01-22T20:02:03.621Z,84.80
2023-01-22T20:04:37.179Z,83.86
2023-01-22T20:07:07.771Z,84.08
2023-01-22T20:09:38.954Z,84.21
2023-01-22T20:12:19.361Z,84.19
2023-01-22T20:14:52.705Z,83.69
2023-01-22T20:17:22.905Z,84.10
2023-01-22T20:19:54.699Z,83.97
2023-01-22T20:22:27.730Z,83.39
2023-01-22T20:24:58.406Z,83.33
2023-01-22T20:27:27.701Z,83.59
2023-01-22T20:30:09.199Z,83.77
2023-01-22T20:32:37.932Z,84.40
2023-01-22T20:35:33.293Z,83.96
2023-01-22T20:38:02.624Z,83.44
2023-01-22T20:40:34.684Z,83.66
2023-01-22T20:43:06.163Z,84.30
2023-01-22T20:45:41.849Z,84.15
2023-01-22T20:48:13.579Z,83.54
2023-01-22T20:50:45.533Z,83.71
2023-01-22T20:53:13.669Z,83.31
2023-01-22T20:55:45.431Z,83.88
2023-01-22T20:58:19.042Z,83.99
2023-01-22T21:00:48.977Z,84.06
2023-01-22T21:03:20.822Z,83.31
2023-01-22T21:05:52.204Z,83.63
2023-01-22T21:08:25.213Z,82.66
2023-01-22T21:10:58.357Z,83.12
2023-01-22T21:13:28.494Z,83.81
2023-01-22T21:16:07.765Z,82.53
2023-01-22T21:18:42.399Z,83.36
2023-01-22T21:21:13.323Z,83.15
2023-01-22T21:23:43.333Z,82.91
2023-01-22T21:26:14.742Z,82.34
2023-01-22T21:28:45.114Z,83.06
2023-01-22T21:31:19.224Z,82.68
2023-01-22T21:33:52.539Z,82.92
2023-01-22T21:36:23.513Z,82.30
2023-01-22T21:38:51.836Z,82.57
2023-01-22T21:41:20.716Z,82.19
2023-01-22T21:44:09.633Z,82.41
2023-01-22T21:46:47.502Z,82.28
2023-01-22T21:49:30.367Z,82.37
2023-01-22T21:52:01.604Z,82.83
2023-01-22T21:54:38.799Z,83.25
2023-01-22T21:57:09.918Z,82.71
2023-01-22T21:59:39.104Z,82.85
2023-01-22T22:02:21.682Z,82.92
2023-01-22T22:04:50.023Z,82.42
2023-01-22T22:07:22.329Z,82.51
2023-01-22T22:09:51.502Z,81.76
2023-01-22T22:12:21.199Z,81.42
2023-01-22T22:14:49.575Z,82.06
2023-01-22T22:17:19.444Z,82.52
2023-01-22T22:19:59.552Z,82.91
2023-01-22T22:22:32.402Z,82.33
2023-01-22T22:25:04.452Z,82.74
2023-01-22T22:27:33.868Z,82.97
2023-01-22T22:30:02.059Z,83.33
2023-01-22T22:32:31.912Z,83.45
2023-01-22T22:35:06.789Z,83.35
2023-01-22T22:37:37.827Z,83.57
2023-01-22T22:40:06.830Z,83.72
2023-01-22T22:42:38.268Z,83.82
2023-01-22T22:45:10.211Z,84.39
2023-01-22T22:47:39.535Z,84.59
2023-01-22T22:50:11.225Z,84.77
2023-01-22T22:52:41.406Z,84.83
2023-01-22T22:55:13.183Z,84.29
2023-01-22T22:58:02.170Z,84.38
2023-01-22T23:00:32.047Z,84.10
2023-01-22T23:03:03.580Z,84.17
2023-01-22T23:05:41.232Z,84.48
2023-01-22T23:08:12.906Z,85.12
2023-01-22T23:10:47.276Z,84.71
2023-01-22T23:13:17.127Z,85.50
2023-01-22T23:15:50.945Z,84.67
2023-01-22T23:18:22.090Z,85.02
2023-01-22T23:20:50.276Z,84.78
2023-01-22T23:23:18.682Z,84.87
2023-01-22T23:25:47.247Z,85.23
2023-01-22T23:28:16.671Z,85.32
2023-01-22T23:30:47.013Z,85.72
2023-01-22T23:33:21.091Z,85.27
2023-01-22T23:35:52.463Z,85.06
2023-01-22T23:38:21.887Z,85.15
2023-01-22T23:40:58.326Z,85.29
2023-01-22T23:43:32.811Z,84.68
2023-01-22T23:46:08.575Z,84.74
2023-01-22T23:48:38.931Z,85.09
2023-01-22T23:51:15.483Z,85.01
2023-01-22T23:53:47.272Z,84.21
2023-01-22T23:56:17.742Z,84.08
2023-01-22T23:58:50.178Z,83.64
